sensor_id;sensor_type;location;lat;lon;timestamp;temperature;humidity
73360;DHT22;63092;43.582;19.528;2023-05-07T00:00:04;14.20;99.00
73360;DHT22;63092;43.582;19.528;2023-05-07T00:02:33;14.30;98.80
73360;DHT22;63092;43.582;19.528;2023-05-07T00:04:59;14.20;99.00
73360;DHT22;63092;43.582;19.528;2023-05-07T00:07:24;14.20;99.20
73360;DHT22;63092;43.582;19.528;2023-05-07T00:09:50;14.30;99.40
73360;DHT22;63092;43.582;19.528;2023-05-07T00:12:16;14.30;99.30
73360;DHT22;63092;43.582;19.528;2023-05-07T00:14:42;14.30;99.20
73360;DHT22;63092;43.582;19.528;2023-05-07T00:17:07;14.30;99.10
73360;DHT22;63092;43.582;19.528;2023-05-07T00:19:33;14.40;98.90
73360;DHT22;63092;43.582;19.528;2023-05-07T00:21:59;14.40;98.50
73360;DHT22;63092;43.582;19.528;2023-05-07T00:24:25;14.30;98.60
73360;DHT22;63092;43.582;19.528;2023-05-07T00:26:50;14.40;98.60
73360;DHT22;63092;43.582;19.528;2023-05-07T00:29:16;14.40;98.30
73360;DHT22;63092;43.582;19.528;2023-05-07T00:31:42;14.30;98.30
73360;DHT22;63092;43.582;19.528;2023-05-07T00:34:08;14.10;98.40
73360;DHT22;63092;43.582;19.528;2023-05-07T00:36:33;14.10;98.70
73360;DHT22;63092;43.582;19.528;2023-05-07T00:39:00;14.10;98.70
73360;DHT22;63092;43.582;19.528;2023-05-07T00:41:27;14.10;98.80
73360;DHT22;63092;43.582;19.528;2023-05-07T00:43:53;14.10;98.90
73360;DHT22;63092;43.582;19.528;2023-05-07T00:46:20;14.00;99.00
73360;DHT22;63092;43.582;19.528;2023-05-07T00:48:47;13.90;99.40
73360;DHT22;63092;43.582;19.528;2023-05-07T00:51:13;13.90;99.60
73360;DHT22;63092;43.582;19.528;2023-05-07T00:53:39;13.90;99.80
73360;DHT22;63092;43.582;19.528;2023-05-07T00:56:06;13.80;99.90
73360;DHT22;63092;43.582;19.528;2023-05-07T00:58:33;13.80;99.90
73360;DHT22;63092;43.582;19.528;2023-05-07T01:00:59;13.80;99.90
73360;DHT22;63092;43.582;19.528;2023-05-07T01:03:24;13.70;99.90
73360;DHT22;63092;43.582;19.528;2023-05-07T01:05:52;13.50;99.90
73360;DHT22;63092;43.582;19.528;2023-05-07T01:08:20;13.50;99.90
73360;DHT22;63092;43.582;19.528;2023-05-07T01:10:46;13.60;99.90
73360;DHT22;63092;43.582;19.528;2023-05-07T01:13:13;13.60;99.90
73360;DHT22;63092;43.582;19.528;2023-05-07T01:15:39;13.60;99.90
73360;DHT22;63092;43.582;19.528;2023-05-07T01:18:06;13.60;99.90
73360;DHT22;63092;43.582;19.528;2023-05-07T01:20:32;13.60;99.90
73360;DHT22;63092;43.582;19.528;2023-05-07T01:23:00;13.50;99.90
73360;DHT22;63092;43.582;19.528;2023-05-07T01:25:26;13.60;99.90
73360;DHT22;63092;43.582;19.528;2023-05-07T01:27:52;13.60;99.90
73360;DHT22;63092;43.582;19.528;2023-05-07T01:30:20;13.50;99.90
73360;DHT22;63092;43.582;19.528;2023-05-07T01:33:09;13.40;99.90
73360;DHT22;63092;43.582;19.528;2023-05-07T01:35:41;13.30;99.90
73360;DHT22;63092;43.582;19.528;2023-05-07T01:38:08;13.20;99.90
73360;DHT22;63092;43.582;19.528;2023-05-07T01:40:34;13.00;99.90
73360;DHT22;63092;43.582;19.528;2023-05-07T01:43:01;13.00;99.90
73360;DHT22;63092;43.582;19.528;2023-05-07T01:45:28;13.10;99.90
73360;DHT22;63092;43.582;19.528;2023-05-07T01:47:54;12.80;99.90
73360;DHT22;63092;43.582;19.528;2023-05-07T01:50:20;12.70;99.90
73360;DHT22;63092;43.582;19.528;2023-05-07T01:52:49;12.50;99.90
73360;DHT22;63092;43.582;19.528;2023-05-07T01:55:15;12.50;99.90
73360;DHT22;63092;43.582;19.528;2023-05-07T01:57:40;12.50;99.90
73360;DHT22;63092;43.582;19.528;2023-05-07T02:00:07;12.60;99.90
73360;DHT22;63092;43.582;19.528;2023-05-07T02:02:34;12.60;99.90
73360;DHT22;63092;43.582;19.528;2023-05-07T02:05:00;12.50;99.90
73360;DHT22;63092;43.582;19.528;2023-05-07T02:07:26;12.50;99.90
73360;DHT22;63092;43.582;19.528;2023-05-07T02:09:52;12.60;99.90
73360;DHT22;63092;43.582;19.528;2023-05-07T02:12:18;12.50;99.90
73360;DHT22;63092;43.582;19.528;2023-05-07T02:14:43;12.60;99.90
73360;DHT22;63092;43.582;19.528;2023-05-07T02:17:09;12.60;99.90
73360;DHT22;63092;43.582;19.528;2023-05-07T02:19:35;12.80;99.90
73360;DHT22;63092;43.582;19.528;2023-05-07T02:22:00;12.80;99.90
73360;DHT22;63092;43.582;19.528;2023-05-07T02:24:26;12.90;99.90
73360;DHT22;63092;43.582;19.528;2023-05-07T02:26:52;12.90;99.90
73360;DHT22;63092;43.582;19.528;2023-05-07T02:29:17;12.80;99.90
73360;DHT22;63092;43.582;19.528;2023-05-07T02:31:43;12.80;99.90
73360;DHT22;63092;43.582;19.528;2023-05-07T02:34:09;12.90;99.90
73360;DHT22;63092;43.582;19.528;2023-05-07T02:36:34;12.90;99.90
73360;DHT22;63092;43.582;19.528;2023-05-07T02:39:00;12.80;99.90
73360;DHT22;63092;43.582;19.528;2023-05-07T02:41:26;12.70;99.90
73360;DHT22;63092;43.582;19.528;2023-05-07T02:43:53;12.70;99.90
73360;DHT22;63092;43.582;19.528;2023-05-07T02:46:19;12.60;99.90
73360;DHT22;63092;43.582;19.528;2023-05-07T02:48:45;12.70;99.90
73360;DHT22;63092;43.582;19.528;2023-05-07T02:51:10;12.70;99.90
73360;DHT22;63092;43.582;19.528;2023-05-07T02:53:36;12.70;99.90
73360;DHT22;63092;43.582;19.528;2023-05-07T02:56:02;12.70;99.90
73360;DHT22;63092;43.582;19.528;2023-05-07T02:58:28;12.70;99.90
73360;DHT22;63092;43.582;19.528;2023-05-07T03:00:54;12.60;99.90
73360;DHT22;63092;43.582;19.528;2023-05-07T03:03:23;12.50;99.90
73360;DHT22;63092;43.582;19.528;2023-05-07T03:05:49;12.40;99.90
73360;DHT22;63092;43.582;19.528;2023-05-07T03:08:14;12.40;99.90
73360;DHT22;63092;43.582;19.528;2023-05-07T03:10:40;12.30;99.90
73360;DHT22;63092;43.582;19.528;2023-05-07T03:13:06;12.40;99.90
73360;DHT22;63092;43.582;19.528;2023-05-07T03:15:32;12.40;99.90
73360;DHT22;63092;43.582;19.528;2023-05-07T03:17:57;12.30;99.90
73360;DHT22;63092;43.582;19.528;2023-05-07T03:20:23;12.20;99.90
73360;DHT22;63092;43.582;19.528;2023-05-07T03:22:49;12.20;99.90
73360;DHT22;63092;43.582;19.528;2023-05-07T03:25:15;12.30;99.90
73360;DHT22;63092;43.582;19.528;2023-05-07T03:27:41;12.40;99.90
73360;DHT22;63092;43.582;19.528;2023-05-07T03:30:10;12.30;99.90
73360;DHT22;63092;43.582;19.528;2023-05-07T03:32:36;12.30;99.90
73360;DHT22;63092;43.582;19.528;2023-05-07T03:35:02;12.40;99.90
73360;DHT22;63092;43.582;19.528;2023-05-07T03:37:28;12.40;99.90
73360;DHT22;63092;43.582;19.528;2023-05-07T03:39:53;12.30;99.90
73360;DHT22;63092;43.582;19.528;2023-05-07T03:42:19;12.20;99.90
73360;DHT22;63092;43.582;19.528;2023-05-07T03:44:45;12.10;99.90
73360;DHT22;63092;43.582;19.528;2023-05-07T03:47:11;12.00;99.90
73360;DHT22;63092;43.582;19.528;2023-05-07T03:49:38;11.70;99.90
73360;DHT22;63092;43.582;19.528;2023-05-07T03:52:05;11.60;99.90
73360;DHT22;63092;43.582;19.528;2023-05-07T03:54:30;11.70;99.90
73360;DHT22;63092;43.582;19.528;2023-05-07T03:56:56;11.70;99.90
73360;DHT22;63092;43.582;19.528;2023-05-07T03:59:22;11.70;99.90
73360;DHT22;63092;43.582;19.528;2023-05-07T04:01:48;11.70;99.90
73360;DHT22;63092;43.582;19.528;2023-05-07T04:04:16;11.70;99.90
73360;DHT22;63092;43.582;19.528;2023-05-07T04:06:42;11.70;99.90
73360;DHT22;63092;43.582;19.528;2023-05-07T04:09:08;11.80;99.90
73360;DHT22;63092;43.582;19.528;2023-05-07T04:11:35;11.80;99.90
73360;DHT22;63092;43.582;19.528;2023-05-07T04:14:01;11.90;99.90
73360;DHT22;63092;43.582;19.528;2023-05-07T04:16:26;11.90;99.90
73360;DHT22;63092;43.582;19.528;2023-05-07T04:18:52;11.90;99.90
73360;DHT22;63092;43.582;19.528;2023-05-07T04:21:19;11.90;99.90
73360;DHT22;63092;43.582;19.528;2023-05-07T04:23:46;12.00;99.90
73360;DHT22;63092;43.582;19.528;2023-05-07T04:26:12;11.90;99.90
73360;DHT22;63092;43.582;19.528;2023-05-07T04:28:39;12.00;99.90
73360;DHT22;63092;43.582;19.528;2023-05-07T04:31:05;12.00;99.90
73360;DHT22;63092;43.582;19.528;2023-05-07T04:33:31;12.00;99.90
73360;DHT22;63092;43.582;19.528;2023-05-07T04:35:57;11.90;99.90
73360;DHT22;63092;43.582;19.528;2023-05-07T04:38:22;11.70;99.90
73360;DHT22;63092;43.582;19.528;2023-05-07T04:40:49;11.80;99.90
73360;DHT22;63092;43.582;19.528;2023-05-07T04:43:15;11.80;99.90
73360;DHT22;63092;43.582;19.528;2023-05-07T04:45:41;11.80;99.90
73360;DHT22;63092;43.582;19.528;2023-05-07T04:48:09;11.80;99.90
73360;DHT22;63092;43.582;19.528;2023-05-07T04:50:34;11.80;99.90
73360;DHT22;63092;43.582;19.528;2023-05-07T04:53:00;12.00;99.90
73360;DHT22;63092;43.582;19.528;2023-05-07T04:55:26;12.00;99.90
73360;DHT22;63092;43.582;19.528;2023-05-07T04:57:53;12.10;99.90
73360;DHT22;63092;43.582;19.528;2023-05-07T05:00:18;12.00;99.90
73360;DHT22;63092;43.582;19.528;2023-05-07T05:02:45;12.00;99.90
73360;DHT22;63092;43.582;19.528;2023-05-07T05:05:11;12.00;99.90
73360;DHT22;63092;43.582;19.528;2023-05-07T05:07:37;12.00;99.90
73360;DHT22;63092;43.582;19.528;2023-05-07T05:10:04;12.00;99.90
73360;DHT22;63092;43.582;19.528;2023-05-07T05:12:31;12.00;99.90
73360;DHT22;63092;43.582;19.528;2023-05-07T05:14:57;12.00;99.90
73360;DHT22;63092;43.582;19.528;2023-05-07T05:17:22;12.10;99.90
73360;DHT22;63092;43.582;19.528;2023-05-07T05:19:48;12.10;99.90
73360;DHT22;63092;43.582;19.528;2023-05-07T05:22:14;12.10;99.90
73360;DHT22;63092;43.582;19.528;2023-05-07T05:24:41;12.30;99.90
73360;DHT22;63092;43.582;19.528;2023-05-07T05:27:07;12.50;99.90
73360;DHT22;63092;43.582;19.528;2023-05-07T05:29:33;12.80;99.90
73360;DHT22;63092;43.582;19.528;2023-05-07T05:31:58;13.20;99.90
73360;DHT22;63092;43.582;19.528;2023-05-07T05:34:24;13.40;99.90
73360;DHT22;63092;43.582;19.528;2023-05-07T05:36:50;13.60;99.90
73360;DHT22;63092;43.582;19.528;2023-05-07T05:39:17;13.90;99.90
73360;DHT22;63092;43.582;19.528;2023-05-07T05:41:42;14.00;99.90
73360;DHT22;63092;43.582;19.528;2023-05-07T05:44:08;14.10;99.90
73360;DHT22;63092;43.582;19.528;2023-05-07T05:46:34;14.20;99.90
73360;DHT22;63092;43.582;19.528;2023-05-07T05:49:00;14.40;99.90
73360;DHT22;63092;43.582;19.528;2023-05-07T05:51:26;14.60;99.90
73360;DHT22;63092;43.582;19.528;2023-05-07T05:53:52;14.70;99.60
73360;DHT22;63092;43.582;19.528;2023-05-07T05:56:18;14.70;99.50
73360;DHT22;63092;43.582;19.528;2023-05-07T05:58:43;14.60;99.60
73360;DHT22;63092;43.582;19.528;2023-05-07T06:01:09;14.50;99.60
73360;DHT22;63092;43.582;19.528;2023-05-07T06:03:36;14.60;99.50
73360;DHT22;63092;43.582;19.528;2023-05-07T06:06:02;14.90;99.20
73360;DHT22;63092;43.582;19.528;2023-05-07T06:08:29;15.00;98.60
73360;DHT22;63092;43.582;19.528;2023-05-07T06:10:56;15.10;98.30
73360;DHT22;63092;43.582;19.528;2023-05-07T06:13:22;15.00;98.30
73360;DHT22;63092;43.582;19.528;2023-05-07T06:15:49;14.90;98.90
73360;DHT22;63092;43.582;19.528;2023-05-07T06:18:15;15.10;99.00
73360;DHT22;63092;43.582;19.528;2023-05-07T06:20:40;15.30;98.20
73360;DHT22;63092;43.582;19.528;2023-05-07T06:23:06;15.10;98.10
73360;DHT22;63092;43.582;19.528;2023-05-07T06:25:32;15.10;98.30
73360;DHT22;63092;43.582;19.528;2023-05-07T06:27:58;15.10;98.50
73360;DHT22;63092;43.582;19.528;2023-05-07T06:30:23;15.20;98.30
73360;DHT22;63092;43.582;19.528;2023-05-07T06:32:49;15.30;98.00
73360;DHT22;63092;43.582;19.528;2023-05-07T06:35:15;15.40;98.20
73360;DHT22;63092;43.582;19.528;2023-05-07T06:37:41;15.40;97.40
73360;DHT22;63092;43.582;19.528;2023-05-07T06:40:08;15.30;97.80
73360;DHT22;63092;43.582;19.528;2023-05-07T06:42:36;15.30;98.40
73360;DHT22;63092;43.582;19.528;2023-05-07T06:45:02;15.60;98.00
73360;DHT22;63092;43.582;19.528;2023-05-07T06:47:28;15.60;97.70
73360;DHT22;63092;43.582;19.528;2023-05-07T06:49:54;15.70;97.10
73360;DHT22;63092;43.582;19.528;2023-05-07T06:52:19;15.60;97.00
73360;DHT22;63092;43.582;19.528;2023-05-07T06:54:45;15.80;97.90
73360;DHT22;63092;43.582;19.528;2023-05-07T06:57:11;15.90;97.10
73360;DHT22;63092;43.582;19.528;2023-05-07T07:04:30;16.20;94.80
73360;DHT22;63092;43.582;19.528;2023-05-07T07:06:56;16.30;95.10
73360;DHT22;63092;43.582;19.528;2023-05-07T07:09:22;16.40;94.50
73360;DHT22;63092;43.582;19.528;2023-05-07T07:11:48;16.50;94.80
73360;DHT22;63092;43.582;19.528;2023-05-07T07:14:14;16.60;94.00
73360;DHT22;63092;43.582;19.528;2023-05-07T07:16:40;16.70;94.20
73360;DHT22;63092;43.582;19.528;2023-05-07T07:19:06;16.90;94.30
73360;DHT22;63092;43.582;19.528;2023-05-07T07:21:32;17.00;93.30
73360;DHT22;63092;43.582;19.528;2023-05-07T07:23:57;17.10;93.20
73360;DHT22;63092;43.582;19.528;2023-05-07T07:26:23;17.20;93.30
73360;DHT22;63092;43.582;19.528;2023-05-07T07:28:49;17.30;92.50
73360;DHT22;63092;43.582;19.528;2023-05-07T07:31:15;17.40;92.30
73360;DHT22;63092;43.582;19.528;2023-05-07T07:33:41;17.30;91.50
73360;DHT22;63092;43.582;19.528;2023-05-07T07:36:07;17.40;92.20
73360;DHT22;63092;43.582;19.528;2023-05-07T07:38:33;17.50;91.80
73360;DHT22;63092;43.582;19.528;2023-05-07T07:41:00;17.60;92.10
73360;DHT22;63092;43.582;19.528;2023-05-07T07:43:25;17.80;91.90
73360;DHT22;63092;43.582;19.528;2023-05-07T07:45:51;17.90;91.10
73360;DHT22;63092;43.582;19.528;2023-05-07T07:48:17;18.10;90.50
73360;DHT22;63092;43.582;19.528;2023-05-07T07:50:43;18.10;88.70
73360;DHT22;63092;43.582;19.528;2023-05-07T07:53:09;18.30;88.60
73360;DHT22;63092;43.582;19.528;2023-05-07T07:55:38;18.30;88.90
73360;DHT22;63092;43.582;19.528;2023-05-07T07:58:04;18.40;87.00
73360;DHT22;63092;43.582;19.528;2023-05-07T08:00:30;18.50;87.50
73360;DHT22;63092;43.582;19.528;2023-05-07T08:02:56;18.60;85.80
73360;DHT22;63092;43.582;19.528;2023-05-07T08:05:22;18.70;85.40
73360;DHT22;63092;43.582;19.528;2023-05-07T08:07:48;18.70;83.30
73360;DHT22;63092;43.582;19.528;2023-05-07T08:10:18;18.90;84.60
73360;DHT22;63092;43.582;19.528;2023-05-07T08:12:50;19.00;84.20
73360;DHT22;63092;43.582;19.528;2023-05-07T08:15:16;19.10;83.90
73360;DHT22;63092;43.582;19.528;2023-05-07T08:17:42;19.30;81.90
73360;DHT22;63092;43.582;19.528;2023-05-07T08:20:09;19.30;81.60
73360;DHT22;63092;43.582;19.528;2023-05-07T08:22:35;19.40;79.80
73360;DHT22;63092;43.582;19.528;2023-05-07T08:25:01;19.50;79.80
73360;DHT22;63092;43.582;19.528;2023-05-07T08:27:27;19.50;79.50
73360;DHT22;63092;43.582;19.528;2023-05-07T08:29:53;19.50;78.50
73360;DHT22;63092;43.582;19.528;2023-05-07T08:32:19;19.60;77.80
73360;DHT22;63092;43.582;19.528;2023-05-07T08:34:45;19.70;77.70
73360;DHT22;63092;43.582;19.528;2023-05-07T08:37:11;19.70;78.70
73360;DHT22;63092;43.582;19.528;2023-05-07T08:39:37;19.80;78.50
73360;DHT22;63092;43.582;19.528;2023-05-07T08:42:03;19.90;78.00
73360;DHT22;63092;43.582;19.528;2023-05-07T08:44:33;20.00;77.90
73360;DHT22;63092;43.582;19.528;2023-05-07T08:47:01;20.20;77.60
73360;DHT22;63092;43.582;19.528;2023-05-07T08:49:27;20.30;77.60
73360;DHT22;63092;43.582;19.528;2023-05-07T08:51:54;20.40;76.70
73360;DHT22;63092;43.582;19.528;2023-05-07T08:56:47;20.60;75.10
73360;DHT22;63092;43.582;19.528;2023-05-07T08:59:13;20.70;76.10
73360;DHT22;63092;43.582;19.528;2023-05-07T09:01:39;20.90;76.50
73360;DHT22;63092;43.582;19.528;2023-05-07T09:04:05;21.00;76.80
73360;DHT22;63092;43.582;19.528;2023-05-07T09:06:33;21.10;79.00
73360;DHT22;63092;43.582;19.528;2023-05-07T09:08:59;21.30;77.80
73360;DHT22;63092;43.582;19.528;2023-05-07T09:11:27;21.40;77.80
73360;DHT22;63092;43.582;19.528;2023-05-07T09:13:57;21.50;76.50
73360;DHT22;63092;43.582;19.528;2023-05-07T09:16:25;21.60;77.50
73360;DHT22;63092;43.582;19.528;2023-05-07T09:18:52;21.70;76.20
73360;DHT22;63092;43.582;19.528;2023-05-07T09:21:19;21.70;72.70
73360;DHT22;63092;43.582;19.528;2023-05-07T09:23:45;21.80;73.30
73360;DHT22;63092;43.582;19.528;2023-05-07T09:26:11;21.90;73.30
73360;DHT22;63092;43.582;19.528;2023-05-07T09:28:43;22.10;71.70
73360;DHT22;63092;43.582;19.528;2023-05-07T09:31:10;22.20;70.20
73360;DHT22;63092;43.582;19.528;2023-05-07T09:33:37;22.30;68.80
73360;DHT22;63092;43.582;19.528;2023-05-07T09:36:07;22.50;69.90
73360;DHT22;63092;43.582;19.528;2023-05-07T09:38:35;22.60;68.30
73360;DHT22;63092;43.582;19.528;2023-05-07T09:43:38;22.80;66.90
73360;DHT22;63092;43.582;19.528;2023-05-07T09:46:07;22.90;64.90
73360;DHT22;63092;43.582;19.528;2023-05-07T09:48:37;23.00;64.20
73360;DHT22;63092;43.582;19.528;2023-05-07T09:51:22;23.20;65.10
73360;DHT22;63092;43.582;19.528;2023-05-07T09:53:52;23.40;63.50
73360;DHT22;63092;43.582;19.528;2023-05-07T09:56:18;23.50;65.20
73360;DHT22;63092;43.582;19.528;2023-05-07T09:58:45;23.50;62.00
73360;DHT22;63092;43.582;19.528;2023-05-07T10:01:12;23.60;61.90
73360;DHT22;63092;43.582;19.528;2023-05-07T10:03:41;23.50;61.10
73360;DHT22;63092;43.582;19.528;2023-05-07T10:06:09;23.60;59.50
73360;DHT22;63092;43.582;19.528;2023-05-07T10:08:37;23.60;60.00
73360;DHT22;63092;43.582;19.528;2023-05-07T10:11:06;23.80;61.20
73360;DHT22;63092;43.582;19.528;2023-05-07T10:13:34;23.90;60.40
73360;DHT22;63092;43.582;19.528;2023-05-07T10:16:06;24.10;59.10
73360;DHT22;63092;43.582;19.528;2023-05-07T10:18:33;24.10;59.20
73360;DHT22;63092;43.582;19.528;2023-05-07T10:21:20;24.30;58.20
73360;DHT22;63092;43.582;19.528;2023-05-07T10:23:53;24.20;58.00
73360;DHT22;63092;43.582;19.528;2023-05-07T10:26:22;24.30;60.90
73360;DHT22;63092;43.582;19.528;2023-05-07T10:28:52;24.50;57.30
73360;DHT22;63092;43.582;19.528;2023-05-07T10:34:09;24.40;56.40
73360;DHT22;63092;43.582;19.528;2023-05-07T10:41:28;24.80;55.40
73360;DHT22;63092;43.582;19.528;2023-05-07T10:43:54;24.90;55.70
73360;DHT22;63092;43.582;19.528;2023-05-07T10:46:21;25.00;55.10
73360;DHT22;63092;43.582;19.528;2023-05-07T10:51:29;25.00;53.80
73360;DHT22;63092;43.582;19.528;2023-05-07T10:56:40;25.20;56.40
73360;DHT22;63092;43.582;19.528;2023-05-07T11:04:16;25.40;52.30
73360;DHT22;63092;43.582;19.528;2023-05-07T11:15:05;25.60;52.00
73360;DHT22;63092;43.582;19.528;2023-05-07T11:17:31;25.80;52.50
73360;DHT22;63092;43.582;19.528;2023-05-07T11:19:58;25.80;51.20
73360;DHT22;63092;43.582;19.528;2023-05-07T11:22:40;25.80;51.00
73360;DHT22;63092;43.582;19.528;2023-05-07T11:25:09;25.80;51.00
73360;DHT22;63092;43.582;19.528;2023-05-07T11:27:45;25.80;52.00
73360;DHT22;63092;43.582;19.528;2023-05-07T11:30:26;25.70;52.90
73360;DHT22;63092;43.582;19.528;2023-05-07T11:33:04;25.60;52.70
73360;DHT22;63092;43.582;19.528;2023-05-07T11:35:43;25.50;51.90
73360;DHT22;63092;43.582;19.528;2023-05-07T11:38:17;25.60;52.90
73360;DHT22;63092;43.582;19.528;2023-05-07T11:40:57;25.70;53.40
73360;DHT22;63092;43.582;19.528;2023-05-07T11:43:28;25.90;52.10
73360;DHT22;63092;43.582;19.528;2023-05-07T11:48:29;26.30;50.70
73360;DHT22;63092;43.582;19.528;2023-05-07T11:51:08;26.30;50.50
73360;DHT22;63092;43.582;19.528;2023-05-07T11:53:44;26.40;49.70
73360;DHT22;63092;43.582;19.528;2023-05-07T11:56:20;26.50;49.80
73360;DHT22;63092;43.582;19.528;2023-05-07T11:58:51;26.50;50.80
73360;DHT22;63092;43.582;19.528;2023-05-07T12:01:28;26.50;49.90
73360;DHT22;63092;43.582;19.528;2023-05-07T12:03:55;26.60;50.00
73360;DHT22;63092;43.582;19.528;2023-05-07T12:06:21;26.60;51.00
73360;DHT22;63092;43.582;19.528;2023-05-07T12:08:49;26.80;50.00
73360;DHT22;63092;43.582;19.528;2023-05-07T12:11:18;26.70;49.00
73360;DHT22;63092;43.582;19.528;2023-05-07T12:13:47;26.80;49.10
73360;DHT22;63092;43.582;19.528;2023-05-07T12:16:12;26.90;49.60
73360;DHT22;63092;43.582;19.528;2023-05-07T12:18:39;27.00;50.20
73360;DHT22;63092;43.582;19.528;2023-05-07T12:21:09;27.10;48.60
73360;DHT22;63092;43.582;19.528;2023-05-07T12:23:42;27.10;49.90
73360;DHT22;63092;43.582;19.528;2023-05-07T12:26:10;27.10;50.10
73360;DHT22;63092;43.582;19.528;2023-05-07T12:28:39;27.10;49.40
73360;DHT22;63092;43.582;19.528;2023-05-07T12:31:05;26.90;50.10
73360;DHT22;63092;43.582;19.528;2023-05-07T12:33:31;27.10;50.60
73360;DHT22;63092;43.582;19.528;2023-05-07T12:35:58;27.20;49.60
73360;DHT22;63092;43.582;19.528;2023-05-07T12:38:36;27.30;48.80
73360;DHT22;63092;43.582;19.528;2023-05-07T12:41:02;27.50;50.00
73360;DHT22;63092;43.582;19.528;2023-05-07T12:43:29;27.10;48.80
73360;DHT22;63092;43.582;19.528;2023-05-07T12:45:57;27.10;48.60
73360;DHT22;63092;43.582;19.528;2023-05-07T12:48:23;27.10;48.80
73360;DHT22;63092;43.582;19.528;2023-05-07T12:50:50;27.10;49.50
73360;DHT22;63092;43.582;19.528;2023-05-07T12:53:16;26.90;49.80
73360;DHT22;63092;43.582;19.528;2023-05-07T12:55:45;26.80;50.60
73360;DHT22;63092;43.582;19.528;2023-05-07T12:58:19;26.60;49.90
73360;DHT22;63092;43.582;19.528;2023-05-07T13:00:48;26.60;50.50
73360;DHT22;63092;43.582;19.528;2023-05-07T13:03:39;26.50;50.40
73360;DHT22;63092;43.582;19.528;2023-05-07T13:06:09;26.30;50.90
73360;DHT22;63092;43.582;19.528;2023-05-07T13:08:40;26.30;51.30
73360;DHT22;63092;43.582;19.528;2023-05-07T13:11:09;26.30;53.00
73360;DHT22;63092;43.582;19.528;2023-05-07T13:13:38;26.20;51.40
73360;DHT22;63092;43.582;19.528;2023-05-07T13:16:05;26.30;52.00
73360;DHT22;63092;43.582;19.528;2023-05-07T13:18:32;26.60;52.20
73360;DHT22;63092;43.582;19.528;2023-05-07T13:20:59;26.80;50.80
73360;DHT22;63092;43.582;19.528;2023-05-07T13:23:26;27.00;51.80
73360;DHT22;63092;43.582;19.528;2023-05-07T13:25:52;27.30;51.10
73360;DHT22;63092;43.582;19.528;2023-05-07T13:28:19;27.40;48.70
73360;DHT22;63092;43.582;19.528;2023-05-07T13:30:46;27.50;48.80
73360;DHT22;63092;43.582;19.528;2023-05-07T13:33:12;27.70;50.00
73360;DHT22;63092;43.582;19.528;2023-05-07T13:35:38;27.60;50.10
73360;DHT22;63092;43.582;19.528;2023-05-07T13:38:04;27.50;49.70
73360;DHT22;63092;43.582;19.528;2023-05-07T13:40:30;27.40;50.10
73360;DHT22;63092;43.582;19.528;2023-05-07T13:42:58;27.20;49.30
73360;DHT22;63092;43.582;19.528;2023-05-07T13:45:25;27.00;49.70
73360;DHT22;63092;43.582;19.528;2023-05-07T13:47:52;26.80;50.60
73360;DHT22;63092;43.582;19.528;2023-05-07T13:50:17;26.70;50.50
73360;DHT22;63092;43.582;19.528;2023-05-07T13:52:44;26.60;51.20
73360;DHT22;63092;43.582;19.528;2023-05-07T13:55:22;26.60;50.30
73360;DHT22;63092;43.582;19.528;2023-05-07T13:58:00;26.50;50.00
73360;DHT22;63092;43.582;19.528;2023-05-07T14:00:28;26.50;50.50
73360;DHT22;63092;43.582;19.528;2023-05-07T14:02:54;26.50;50.30
73360;DHT22;63092;43.582;19.528;2023-05-07T14:05:20;26.50;50.30
73360;DHT22;63092;43.582;19.528;2023-05-07T14:07:49;26.40;50.90
73360;DHT22;63092;43.582;19.528;2023-05-07T14:10:18;26.50;51.40
73360;DHT22;63092;43.582;19.528;2023-05-07T14:12:44;26.50;50.40
73360;DHT22;63092;43.582;19.528;2023-05-07T14:15:11;26.80;51.50
73360;DHT22;63092;43.582;19.528;2023-05-07T14:17:37;26.90;50.40
73360;DHT22;63092;43.582;19.528;2023-05-07T14:20:03;26.90;50.20
73360;DHT22;63092;43.582;19.528;2023-05-07T14:22:28;26.80;50.60
73360;DHT22;63092;43.582;19.528;2023-05-07T14:24:54;26.80;50.00
73360;DHT22;63092;43.582;19.528;2023-05-07T14:27:20;26.90;50.50
73360;DHT22;63092;43.582;19.528;2023-05-07T14:29:46;27.00;49.70
73360;DHT22;63092;43.582;19.528;2023-05-07T14:32:19;27.20;49.30
73360;DHT22;63092;43.582;19.528;2023-05-07T14:34:45;27.20;49.30
73360;DHT22;63092;43.582;19.528;2023-05-07T14:37:12;27.10;49.20
73360;DHT22;63092;43.582;19.528;2023-05-07T14:39:38;27.00;49.20
73360;DHT22;63092;43.582;19.528;2023-05-07T14:42:04;26.90;49.10
73360;DHT22;63092;43.582;19.528;2023-05-07T14:44:30;27.00;49.30
73360;DHT22;63092;43.582;19.528;2023-05-07T14:46:56;27.20;49.30
73360;DHT22;63092;43.582;19.528;2023-05-07T14:49:22;27.10;49.10
73360;DHT22;63092;43.582;19.528;2023-05-07T14:51:49;27.10;48.90
73360;DHT22;63092;43.582;19.528;2023-05-07T14:54:15;27.00;48.70
73360;DHT22;63092;43.582;19.528;2023-05-07T14:56:41;26.80;49.10
73360;DHT22;63092;43.582;19.528;2023-05-07T14:59:08;26.60;49.10
73360;DHT22;63092;43.582;19.528;2023-05-07T15:01:37;26.50;49.40
73360;DHT22;63092;43.582;19.528;2023-05-07T15:04:04;26.30;49.90
73360;DHT22;63092;43.582;19.528;2023-05-07T15:06:30;26.20;50.10
73360;DHT22;63092;43.582;19.528;2023-05-07T15:08:56;26.10;49.70
73360;DHT22;63092;43.582;19.528;2023-05-07T15:11:22;26.30;49.80
73360;DHT22;63092;43.582;19.528;2023-05-07T15:13:48;26.30;50.30
73360;DHT22;63092;43.582;19.528;2023-05-07T15:16:14;26.50;50.30
73360;DHT22;63092;43.582;19.528;2023-05-07T15:18:40;26.60;49.90
73360;DHT22;63092;43.582;19.528;2023-05-07T15:21:06;26.60;50.00
73360;DHT22;63092;43.582;19.528;2023-05-07T15:23:31;26.60;49.20
73360;DHT22;63092;43.582;19.528;2023-05-07T15:25:58;26.60;49.50
73360;DHT22;63092;43.582;19.528;2023-05-07T15:28:23;26.80;50.80
73360;DHT22;63092;43.582;19.528;2023-05-07T15:30:49;26.80;49.60
73360;DHT22;63092;43.582;19.528;2023-05-07T15:33:15;27.00;49.60
73360;DHT22;63092;43.582;19.528;2023-05-07T15:35:41;26.90;49.20
73360;DHT22;63092;43.582;19.528;2023-05-07T15:38:07;26.90;49.40
73360;DHT22;63092;43.582;19.528;2023-05-07T15:40:34;26.90;49.60
73360;DHT22;63092;43.582;19.528;2023-05-07T15:43:00;26.80;49.90
73360;DHT22;63092;43.582;19.528;2023-05-07T15:45:27;26.80;50.10
73360;DHT22;63092;43.582;19.528;2023-05-07T15:47:53;26.90;50.10
73360;DHT22;63092;43.582;19.528;2023-05-07T15:50:19;26.90;48.30
73360;DHT22;63092;43.582;19.528;2023-05-07T15:52:44;26.80;48.30